sensor_id;sensor_type;location;lat;lon;timestamp;temperature;humidity
26691;DHT22;14307;51.718;8.938;2022-09-03T00:02:41;15.10;99.90
26691;DHT22;14307;51.718;8.938;2022-09-03T00:05:34;15.10;99.90
26691;DHT22;14307;51.718;8.938;2022-09-03T00:16:29;15.00;99.90
26691;DHT22;14307;51.718;8.938;2022-09-03T00:19:01;14.90;99.90
26691;DHT22;14307;51.718;8.938;2022-09-03T00:24:15;14.90;99.90
26691;DHT22;14307;51.718;8.938;2022-09-03T00:26:46;14.90;99.90
26691;DHT22;14307;51.718;8.938;2022-09-03T00:29:22;15.00;99.90
26691;DHT22;14307;51.718;8.938;2022-09-03T00:31:53;14.90;99.90
26691;DHT22;14307;51.718;8.938;2022-09-03T00:34:31;15.00;99.90
26691;DHT22;14307;51.718;8.938;2022-09-03T00:36:59;14.90;99.90
26691;DHT22;14307;51.718;8.938;2022-09-03T00:39:27;14.80;99.90
26691;DHT22;14307;51.718;8.938;2022-09-03T00:57:48;14.70;99.90
26691;DHT22;14307;51.718;8.938;2022-09-03T01:00:19;14.70;99.90
26691;DHT22;14307;51.718;8.938;2022-09-03T01:06:02;14.70;99.90
26691;DHT22;14307;51.718;8.938;2022-09-03T01:14:05;14.60;99.90
26691;DHT22;14307;51.718;8.938;2022-09-03T01:22:16;14.60;99.90
26691;DHT22;14307;51.718;8.938;2022-09-03T01:25:03;14.60;99.90
26691;DHT22;14307;51.718;8.938;2022-09-03T01:30:29;14.50;99.90
26691;DHT22;14307;51.718;8.938;2022-09-03T01:36:00;14.50;99.90
26691;DHT22;14307;51.718;8.938;2022-09-03T01:38:42;14.50;99.90
26691;DHT22;14307;51.718;8.938;2022-09-03T01:41:33;14.50;99.90
26691;DHT22;14307;51.718;8.938;2022-09-03T01:50:09;14.40;99.90
26691;DHT22;14307;51.718;8.938;2022-09-03T02:00:42;14.30;99.90
26691;DHT22;14307;51.718;8.938;2022-09-03T02:03:10;14.30;99.90
26691;DHT22;14307;51.718;8.938;2022-09-03T02:05:38;14.20;99.90
26691;DHT22;14307;51.718;8.938;2022-09-03T02:08:07;14.20;99.90
26691;DHT22;14307;51.718;8.938;2022-09-03T02:10:50;14.20;99.90
26691;DHT22;14307;51.718;8.938;2022-09-03T02:13:24;14.20;99.90
26691;DHT22;14307;51.718;8.938;2022-09-03T02:15:53;14.20;99.90
26691;DHT22;14307;51.718;8.938;2022-09-03T02:18:28;14.20;99.90
26691;DHT22;14307;51.718;8.938;2022-09-03T02:20:58;14.10;99.90
26691;DHT22;14307;51.718;8.938;2022-09-03T02:23:26;14.10;99.90
26691;DHT22;14307;51.718;8.938;2022-09-03T02:26:00;14.20;99.90
26691;DHT22;14307;51.718;8.938;2022-09-03T02:28:28;14.10;99.90
26691;DHT22;14307;51.718;8.938;2022-09-03T02:30:56;14.10;99.90
26691;DHT22;14307;51.718;8.938;2022-09-03T02:33:23;14.10;99.90
26691;DHT22;14307;51.718;8.938;2022-09-03T02:35:50;14.10;99.90
26691;DHT22;14307;51.718;8.938;2022-09-03T02:38:24;14.00;99.90
26691;DHT22;14307;51.718;8.938;2022-09-03T02:40:52;14.10;99.90
26691;DHT22;14307;51.718;8.938;2022-09-03T02:43:38;14.00;99.90
26691;DHT22;14307;51.718;8.938;2022-09-03T02:46:09;14.00;99.90
26691;DHT22;14307;51.718;8.938;2022-09-03T02:48:38;14.00;99.90
26691;DHT22;14307;51.718;8.938;2022-09-03T02:51:04;14.00;99.90
26691;DHT22;14307;51.718;8.938;2022-09-03T02:53:41;14.00;99.90
26691;DHT22;14307;51.718;8.938;2022-09-03T02:56:08;13.90;99.90
26691;DHT22;14307;51.718;8.938;2022-09-03T02:58:35;13.90;99.90
26691;DHT22;14307;51.718;8.938;2022-09-03T03:01:02;13.90;99.90
26691;DHT22;14307;51.718;8.938;2022-09-03T03:03:29;13.70;99.90
26691;DHT22;14307;51.718;8.938;2022-09-03T03:05:59;13.80;99.90
26691;DHT22;14307;51.718;8.938;2022-09-03T03:08:27;13.80;99.90
26691;DHT22;14307;51.718;8.938;2022-09-03T03:10:56;13.80;99.90
26691;DHT22;14307;51.718;8.938;2022-09-03T03:13:27;13.80;99.90
26691;DHT22;14307;51.718;8.938;2022-09-03T03:16:03;13.70;99.90
26691;DHT22;14307;51.718;8.938;2022-09-03T03:18:32;13.70;99.90
26691;DHT22;14307;51.718;8.938;2022-09-03T03:21:04;13.70;99.90
26691;DHT22;14307;51.718;8.938;2022-09-03T03:23:32;13.70;99.90
26691;DHT22;14307;51.718;8.938;2022-09-03T03:26:01;13.60;99.90
26691;DHT22;14307;51.718;8.938;2022-09-03T03:28:31;13.60;99.90
26691;DHT22;14307;51.718;8.938;2022-09-03T03:31:11;13.60;99.90
26691;DHT22;14307;51.718;8.938;2022-09-03T03:33:38;13.60;99.90
26691;DHT22;14307;51.718;8.938;2022-09-03T03:36:13;13.50;99.90
26691;DHT22;14307;51.718;8.938;2022-09-03T03:38:42;13.50;99.90
26691;DHT22;14307;51.718;8.938;2022-09-03T03:43:41;13.50;99.90
26691;DHT22;14307;51.718;8.938;2022-09-03T03:46:08;13.40;99.90
26691;DHT22;14307;51.718;8.938;2022-09-03T03:48:36;13.40;99.90
26691;DHT22;14307;51.718;8.938;2022-09-03T03:51:05;13.40;99.90
26691;DHT22;14307;51.718;8.938;2022-09-03T03:53:34;13.40;99.90
26691;DHT22;14307;51.718;8.938;2022-09-03T03:56:03;13.30;99.90
26691;DHT22;14307;51.718;8.938;2022-09-03T03:58:32;13.30;99.90
26691;DHT22;14307;51.718;8.938;2022-09-03T04:01:07;13.30;99.90
26691;DHT22;14307;51.718;8.938;2022-09-03T04:03:35;13.30;99.90
26691;DHT22;14307;51.718;8.938;2022-09-03T04:06:03;13.30;99.90
26691;DHT22;14307;51.718;8.938;2022-09-03T04:08:34;13.20;99.90
26691;DHT22;14307;51.718;8.938;2022-09-03T04:11:01;13.10;99.90
26691;DHT22;14307;51.718;8.938;2022-09-03T04:13:32;13.20;99.90
26691;DHT22;14307;51.718;8.938;2022-09-03T04:16:04;13.10;99.90
26691;DHT22;14307;51.718;8.938;2022-09-03T04:18:32;13.10;99.90
26691;DHT22;14307;51.718;8.938;2022-09-03T04:21:04;13.10;99.90
26691;DHT22;14307;51.718;8.938;2022-09-03T04:23:35;13.20;99.90
26691;DHT22;14307;51.718;8.938;2022-09-03T04:26:03;13.10;99.90
26691;DHT22;14307;51.718;8.938;2022-09-03T04:28:31;12.90;99.90
26691;DHT22;14307;51.718;8.938;2022-09-03T04:31:06;13.10;99.90
26691;DHT22;14307;51.718;8.938;2022-09-03T04:33:34;13.10;99.90
26691;DHT22;14307;51.718;8.938;2022-09-03T04:36:10;13.10;99.90
26691;DHT22;14307;51.718;8.938;2022-09-03T04:38:40;13.10;99.90
26691;DHT22;14307;51.718;8.938;2022-09-03T04:41:09;13.00;99.90
26691;DHT22;14307;51.718;8.938;2022-09-03T04:43:36;13.10;99.90
26691;DHT22;14307;51.718;8.938;2022-09-03T04:46:05;13.10;99.90
26691;DHT22;14307;51.718;8.938;2022-09-03T04:48:33;13.10;99.90
26691;DHT22;14307;51.718;8.938;2022-09-03T04:51:13;13.00;99.90
26691;DHT22;14307;51.718;8.938;2022-09-03T04:53:42;13.00;99.90
26691;DHT22;14307;51.718;8.938;2022-09-03T04:56:24;13.10;99.90
26691;DHT22;14307;51.718;8.938;2022-09-03T04:58:56;13.10;99.90
26691;DHT22;14307;51.718;8.938;2022-09-03T05:01:25;13.10;99.90
26691;DHT22;14307;51.718;8.938;2022-09-03T05:03:54;13.10;99.90
26691;DHT22;14307;51.718;8.938;2022-09-03T05:06:20;13.10;99.90
26691;DHT22;14307;51.718;8.938;2022-09-03T05:08:48;13.10;99.90
26691;DHT22;14307;51.718;8.938;2022-09-03T05:11:16;13.10;99.90
26691;DHT22;14307;51.718;8.938;2022-09-03T05:13:46;13.10;99.90
26691;DHT22;14307;51.718;8.938;2022-09-03T05:16:14;13.10;99.90
26691;DHT22;14307;51.718;8.938;2022-09-03T05:18:41;13.10;99.90
26691;DHT22;14307;51.718;8.938;2022-09-03T05:21:11;13.10;99.90
26691;DHT22;14307;51.718;8.938;2022-09-03T05:23:40;13.10;99.90
26691;DHT22;14307;51.718;8.938;2022-09-03T05:26:11;13.10;99.90
26691;DHT22;14307;51.718;8.938;2022-09-03T05:28:40;13.10;99.90
26691;DHT22;14307;51.718;8.938;2022-09-03T05:31:10;13.20;99.90
26691;DHT22;14307;51.718;8.938;2022-09-03T05:33:39;13.20;99.90
26691;DHT22;14307;51.718;8.938;2022-09-03T05:36:10;13.20;99.90
26691;DHT22;14307;51.718;8.938;2022-09-03T05:38:37;13.10;99.90
26691;DHT22;14307;51.718;8.938;2022-09-03T05:41:06;13.20;99.90
26691;DHT22;14307;51.718;8.938;2022-09-03T05:43:34;13.20;99.90
26691;DHT22;14307;51.718;8.938;2022-09-03T05:46:07;13.20;99.90
26691;DHT22;14307;51.718;8.938;2022-09-03T05:48:36;13.30;99.90
26691;DHT22;14307;51.718;8.938;2022-09-03T05:51:08;13.30;99.90
26691;DHT22;14307;51.718;8.938;2022-09-03T05:53:37;13.30;99.90
26691;DHT22;14307;51.718;8.938;2022-09-03T05:56:07;13.40;99.90
26691;DHT22;14307;51.718;8.938;2022-09-03T05:58:38;13.50;99.90
26691;DHT22;14307;51.718;8.938;2022-09-03T06:01:15;13.50;99.90
26691;DHT22;14307;51.718;8.938;2022-09-03T06:03:43;13.50;99.90
26691;DHT22;14307;51.718;8.938;2022-09-03T06:06:11;13.60;99.90
26691;DHT22;14307;51.718;8.938;2022-09-03T06:08:39;13.70;99.90
26691;DHT22;14307;51.718;8.938;2022-09-03T06:11:08;13.70;99.90
26691;DHT22;14307;51.718;8.938;2022-09-03T06:13:35;13.80;99.90
26691;DHT22;14307;51.718;8.938;2022-09-03T06:16:04;13.70;99.90
26691;DHT22;14307;51.718;8.938;2022-09-03T06:18:31;13.80;99.90
26691;DHT22;14307;51.718;8.938;2022-09-03T06:21:01;13.90;99.90
26691;DHT22;14307;51.718;8.938;2022-09-03T06:23:29;13.90;99.90
26691;DHT22;14307;51.718;8.938;2022-09-03T06:26:09;13.90;99.90
26691;DHT22;14307;51.718;8.938;2022-09-03T06:28:38;14.00;99.90
26691;DHT22;14307;51.718;8.938;2022-09-03T06:31:07;14.10;99.90
26691;DHT22;14307;51.718;8.938;2022-09-03T06:33:36;14.20;99.90
26691;DHT22;14307;51.718;8.938;2022-09-03T06:36:06;14.20;99.90
26691;DHT22;14307;51.718;8.938;2022-09-03T06:38:37;14.20;99.90
26691;DHT22;14307;51.718;8.938;2022-09-03T06:41:16;14.30;99.90
26691;DHT22;14307;51.718;8.938;2022-09-03T06:43:47;14.30;99.90
26691;DHT22;14307;51.718;8.938;2022-09-03T06:46:17;14.30;99.90
26691;DHT22;14307;51.718;8.938;2022-09-03T06:48:44;14.40;99.90
26691;DHT22;14307;51.718;8.938;2022-09-03T06:51:15;14.50;99.90
26691;DHT22;14307;51.718;8.938;2022-09-03T06:53:44;14.60;99.90
26691;DHT22;14307;51.718;8.938;2022-09-03T06:56:13;14.70;99.90
26691;DHT22;14307;51.718;8.938;2022-09-03T06:58:44;14.80;99.90
26691;DHT22;14307;51.718;8.938;2022-09-03T07:01:14;15.00;99.90
26691;DHT22;14307;51.718;8.938;2022-09-03T07:03:43;15.10;99.90
26691;DHT22;14307;51.718;8.938;2022-09-03T07:06:12;15.20;99.90
26691;DHT22;14307;51.718;8.938;2022-09-03T07:08:40;15.60;99.90
26691;DHT22;14307;51.718;8.938;2022-09-03T07:11:10;15.80;99.90
26691;DHT22;14307;51.718;8.938;2022-09-03T07:13:40;15.90;99.90
26691;DHT22;14307;51.718;8.938;2022-09-03T07:16:09;16.10;99.90
26691;DHT22;14307;51.718;8.938;2022-09-03T07:18:37;16.20;99.90
26691;DHT22;14307;51.718;8.938;2022-09-03T07:21:09;16.20;99.90
26691;DHT22;14307;51.718;8.938;2022-09-03T07:23:37;16.30;99.90
26691;DHT22;14307;51.718;8.938;2022-09-03T07:26:12;16.50;99.90
26691;DHT22;14307;51.718;8.938;2022-09-03T07:28:40;16.90;99.90
26691;DHT22;14307;51.718;8.938;2022-09-03T07:31:28;17.10;99.90
26691;DHT22;14307;51.718;8.938;2022-09-03T07:34:07;17.20;99.90
26691;DHT22;14307;51.718;8.938;2022-09-03T07:36:44;16.90;99.90
26691;DHT22;14307;51.718;8.938;2022-09-03T07:39:17;17.10;99.90
26691;DHT22;14307;51.718;8.938;2022-09-03T07:41:44;17.40;99.90
26691;DHT22;14307;51.718;8.938;2022-09-03T07:44:13;17.30;99.90
26691;DHT22;14307;51.718;8.938;2022-09-03T07:46:41;17.40;99.90
26691;DHT22;14307;51.718;8.938;2022-09-03T07:49:10;17.60;99.90
26691;DHT22;14307;51.718;8.938;2022-09-03T07:51:38;17.80;99.90
26691;DHT22;14307;51.718;8.938;2022-09-03T07:54:09;17.80;99.90
26691;DHT22;14307;51.718;8.938;2022-09-03T07:56:39;18.00;99.90
26691;DHT22;14307;51.718;8.938;2022-09-03T07:59:06;18.20;99.90
26691;DHT22;14307;51.718;8.938;2022-09-03T08:01:35;18.10;99.90
26691;DHT22;14307;51.718;8.938;2022-09-03T08:04:02;18.50;99.90
26691;DHT22;14307;51.718;8.938;2022-09-03T08:06:31;18.70;99.90
26691;DHT22;14307;51.718;8.938;2022-09-03T08:09:02;18.80;99.90
26691;DHT22;14307;51.718;8.938;2022-09-03T08:11:39;18.70;99.90
26691;DHT22;14307;51.718;8.938;2022-09-03T08:14:09;18.50;99.90
26691;DHT22;14307;51.718;8.938;2022-09-03T08:16:38;18.80;99.90
26691;DHT22;14307;51.718;8.938;2022-09-03T08:19:05;19.00;99.90
26691;DHT22;14307;51.718;8.938;2022-09-03T08:21:33;19.20;99.90
26691;DHT22;14307;51.718;8.938;2022-09-03T08:24:00;19.20;99.90
26691;DHT22;14307;51.718;8.938;2022-09-03T08:26:32;19.00;99.90
26691;DHT22;14307;51.718;8.938;2022-09-03T08:28:59;19.10;99.90
26691;DHT22;14307;51.718;8.938;2022-09-03T08:31:27;19.10;99.90
26691;DHT22;14307;51.718;8.938;2022-09-03T08:33:56;19.50;99.90
26691;DHT22;14307;51.718;8.938;2022-09-03T08:36:28;19.70;99.90
26691;DHT22;14307;51.718;8.938;2022-09-03T08:38:57;19.50;99.90
26691;DHT22;14307;51.718;8.938;2022-09-03T08:44:29;19.70;99.90
26691;DHT22;14307;51.718;8.938;2022-09-03T08:47:05;19.90;99.90
26691;DHT22;14307;51.718;8.938;2022-09-03T08:52:37;20.10;99.90
26691;DHT22;14307;51.718;8.938;2022-09-03T08:55:28;20.30;99.90
26691;DHT22;14307;51.718;8.938;2022-09-03T08:58:08;20.30;99.90
26691;DHT22;14307;51.718;8.938;2022-09-03T09:06:25;20.10;99.90
26691;DHT22;14307;51.718;8.938;2022-09-03T09:09:53;20.10;99.90
26691;DHT22;14307;51.718;8.938;2022-09-03T09:19:57;20.80;99.90
26691;DHT22;14307;51.718;8.938;2022-09-03T09:22:32;20.60;99.90
26691;DHT22;14307;51.718;8.938;2022-09-03T09:25:05;20.30;99.90
26691;DHT22;14307;51.718;8.938;2022-09-03T09:27:34;20.20;99.90
26691;DHT22;14307;51.718;8.938;2022-09-03T09:30:04;20.40;99.90
26691;DHT22;14307;51.718;8.938;2022-09-03T09:32:31;20.50;99.90
26691;DHT22;14307;51.718;8.938;2022-09-03T09:34:59;20.90;99.90
26691;DHT22;14307;51.718;8.938;2022-09-03T09:37:26;21.20;99.90
26691;DHT22;14307;51.718;8.938;2022-09-03T09:39:58;21.60;99.90
26691;DHT22;14307;51.718;8.938;2022-09-03T09:42:25;21.70;99.90
26691;DHT22;14307;51.718;8.938;2022-09-03T09:44:53;21.70;99.90
26691;DHT22;14307;51.718;8.938;2022-09-03T09:47:27;21.80;99.90
26691;DHT22;14307;51.718;8.938;2022-09-03T09:49:56;21.30;99.90
26691;DHT22;14307;51.718;8.938;2022-09-03T09:52:25;21.10;99.90
26691;DHT22;14307;51.718;8.938;2022-09-03T09:55:09;21.10;99.90
26691;DHT22;14307;51.718;8.938;2022-09-03T09:57:36;21.10;99.90
26691;DHT22;14307;51.718;8.938;2022-09-03T10:00:16;21.10;99.90
26691;DHT22;14307;51.718;8.938;2022-09-03T10:02:51;21.20;99.90
26691;DHT22;14307;51.718;8.938;2022-09-03T10:05:31;21.10;99.90
26691;DHT22;14307;51.718;8.938;2022-09-03T10:08:19;20.70;99.90
26691;DHT22;14307;51.718;8.938;2022-09-03T10:10:49;20.50;99.90
26691;DHT22;14307;51.718;8.938;2022-09-03T10:13:29;20.60;99.90
26691;DHT22;14307;51.718;8.938;2022-09-03T10:16:15;20.90;99.90
26691;DHT22;14307;51.718;8.938;2022-09-03T10:21:31;21.30;99.90
26691;DHT22;14307;51.718;8.938;2022-09-03T10:26:49;21.70;99.90
26691;DHT22;14307;51.718;8.938;2022-09-03T10:29:20;22.20;99.90
26691;DHT22;14307;51.718;8.938;2022-09-03T10:34:37;22.70;99.90
26691;DHT22;14307;51.718;8.938;2022-09-03T10:37:12;23.00;99.90
26691;DHT22;14307;51.718;8.938;2022-09-03T10:42:54;23.00;99.90
26691;DHT22;14307;51.718;8.938;2022-09-03T10:50:51;22.00;99.90
26691;DHT22;14307;51.718;8.938;2022-09-03T10:56:33;22.80;99.90
26691;DHT22;14307;51.718;8.938;2022-09-03T11:02:19;23.10;99.90
26691;DHT22;14307;51.718;8.938;2022-09-03T11:04:55;23.40;99.90
26691;DHT22;14307;51.718;8.938;2022-09-03T11:07:31;23.40;99.90
26691;DHT22;14307;51.718;8.938;2022-09-03T11:12:47;23.50;99.90
26691;DHT22;14307;51.718;8.938;2022-09-03T11:18:23;23.50;99.90
26691;DHT22;14307;51.718;8.938;2022-09-03T11:20:55;23.50;99.90
26691;DHT22;14307;51.718;8.938;2022-09-03T11:23:45;23.80;99.90
26691;DHT22;14307;51.718;8.938;2022-09-03T11:26:16;24.30;99.90
26691;DHT22;14307;51.718;8.938;2022-09-03T11:28:57;24.40;99.90
26691;DHT22;14307;51.718;8.938;2022-09-03T11:31:53;24.10;99.90
26691;DHT22;14307;51.718;8.938;2022-09-03T11:37:25;23.10;99.90
26691;DHT22;14307;51.718;8.938;2022-09-03T11:40:14;22.80;99.90
26691;DHT22;14307;51.718;8.938;2022-09-03T11:42:46;22.50;99.90
26691;DHT22;14307;51.718;8.938;2022-09-03T11:47:46;22.40;99.90
26691;DHT22;14307;51.718;8.938;2022-09-03T11:53:06;22.50;99.90
26691;DHT22;14307;51.718;8.938;2022-09-03T11:56:00;22.80;99.90
26691;DHT22;14307;51.718;8.938;2022-09-03T11:58:38;22.90;99.90
26691;DHT22;14307;51.718;8.938;2022-09-03T12:01:14;23.50;99.90
26691;DHT22;14307;51.718;8.938;2022-09-03T12:03:44;23.50;99.90
26691;DHT22;14307;51.718;8.938;2022-09-03T12:12:03;22.90;99.90
26691;DHT22;14307;51.718;8.938;2022-09-03T12:17:18;23.10;99.90
26691;DHT22;14307;51.718;8.938;2022-09-03T12:19:53;23.30;99.90
26691;DHT22;14307;51.718;8.938;2022-09-03T12:22:23;23.20;99.90
26691;DHT22;14307;51.718;8.938;2022-09-03T12:24:51;23.50;99.90
26691;DHT22;14307;51.718;8.938;2022-09-03T12:30:01;23.10;99.90
26691;DHT22;14307;51.718;8.938;2022-09-03T12:32:33;23.70;99.90
26691;DHT22;14307;51.718;8.938;2022-09-03T12:35:20;23.70;99.90
26691;DHT22;14307;51.718;8.938;2022-09-03T12:38:08;23.50;99.90
26691;DHT22;14307;51.718;8.938;2022-09-03T12:40:44;23.70;99.90
26691;DHT22;14307;51.718;8.938;2022-09-03T12:43:31;23.60;99.90
26691;DHT22;14307;51.718;8.938;2022-09-03T12:46:13;23.40;99.90
26691;DHT22;14307;51.718;8.938;2022-09-03T12:51:41;23.60;99.90
26691;DHT22;14307;51.718;8.938;2022-09-03T12:54:21;23.50;99.90
26691;DHT22;14307;51.718;8.938;2022-09-03T12:56:55;23.60;99.90
26691;DHT22;14307;51.718;8.938;2022-09-03T12:59:26;23.30;99.90
26691;DHT22;14307;51.718;8.938;2022-09-03T13:01:57;23.30;99.90
26691;DHT22;14307;51.718;8.938;2022-09-03T13:04:32;23.10;99.90
26691;DHT22;14307;51.718;8.938;2022-09-03T13:07:14;22.90;99.90
26691;DHT22;14307;51.718;8.938;2022-09-03T13:09:47;22.90;99.90
26691;DHT22;14307;51.718;8.938;2022-09-03T13:12:42;23.00;99.90
26691;DHT22;14307;51.718;8.938;2022-09-03T13:15:17;23.10;99.90
26691;DHT22;14307;51.718;8.938;2022-09-03T13:18:22;23.20;99.90
26691;DHT22;14307;51.718;8.938;2022-09-03T13:21:11;23.10;99.90
26691;DHT22;14307;51.718;8.938;2022-09-03T13:34:54;23.60;99.90
26691;DHT22;14307;51.718;8.938;2022-09-03T13:38:02;23.40;99.90
26691;DHT22;14307;51.718;8.938;2022-09-03T13:40:35;23.10;99.90
26691;DHT22;14307;51.718;8.938;2022-09-03T13:43:26;23.20;99.90
26691;DHT22;14307;51.718;8.938;2022-09-03T13:46:06;23.40;99.90
26691;DHT22;14307;51.718;8.938;2022-09-03T13:48:43;23.40;99.90
26691;DHT22;14307;51.718;8.938;2022-09-03T13:51:38;23.50;99.90
26691;DHT22;14307;51.718;8.938;2022-09-03T13:54:18;23.70;99.90
26691;DHT22;14307;51.718;8.938;2022-09-03T13:57:28;24.00;99.90
26691;DHT22;14307;51.718;8.938;2022-09-03T14:00:06;24.10;99.80
26691;DHT22;14307;51.718;8.938;2022-09-03T14:10:22;24.50;99.90
26691;DHT22;14307;51.718;8.938;2022-09-03T14:13:23;24.90;99.90
26691;DHT22;14307;51.718;8.938;2022-09-03T14:19:25;24.30;99.20
26691;DHT22;14307;51.718;8.938;2022-09-03T14:22:08;23.90;99.50
26691;DHT22;14307;51.718;8.938;2022-09-03T14:24:48;23.60;99.90
26691;DHT22;14307;51.718;8.938;2022-09-03T14:27:30;23.60;99.90
26691;DHT22;14307;51.718;8.938;2022-09-03T14:30:00;23.60;99.90
26691;DHT22;14307;51.718;8.938;2022-09-03T14:35:27;23.30;99.80
26691;DHT22;14307;51.718;8.938;2022-09-03T14:47:28;22.60;99.90
26691;DHT22;14307;51.718;8.938;2022-09-03T14:57:38;22.70;99.90
26691;DHT22;14307;51.718;8.938;2022-09-03T15:01:12;22.70;99.90
26691;DHT22;14307;51.718;8.938;2022-09-03T15:03:17;22.50;99.90
26691;DHT22;14307;51.718;8.938;2022-09-03T15:09:10;22.50;99.90
26691;DHT22;14307;51.718;8.938;2022-09-03T15:30:48;22.50;99.90
26691;DHT22;14307;51.718;8.938;2022-09-03T15:33:34;22.50;99.90
26691;DHT22;14307;51.718;8.938;2022-09-03T15:36:27;22.40;99.90
26691;DHT22;14307;51.718;8.938;2022-09-03T15:39:05;22.20;99.90
26691;DHT22;14307;51.718;8.938;2022-09-03T15:42:00;22.00;99.90
26691;DHT22;14307;51.718;8.938;2022-09-03T15:44:46;22.10;99.90
26691;DHT22;14307;51.718;8.938;2022-09-03T15:55:42;22.00;99.90
26691;DHT22;14307;51.718;8.938;2022-09-03T15:58:19;21.90;99.90
26691;DHT22;14307;51.718;8.938;2022-09-03T16:01:01;21.90;99.90
26691;DHT22;14307;51.718;8.938;2022-09-03T16:09:28;21.90;99.90
26691;DHT22;14307;51.718;8.938;2022-09-03T16:14:57;21.90;99.90
26691;DHT22;14307;51.718;8.938;2022-09-03T16:23:22;21.70;99.90
26691;DHT22;14307;51.718;8.938;2022-09-03T16:25:56;21.70;99.90
26691;DHT22;14307;51.718;8.938;2022-09-03T16:28:53;21.70;99.90
26691;DHT22;14307;51.718;8.938;2022-09-03T16:50:55;21.60;99.90
26691;DHT22;14307;51.718;8.938;2022-09-03T16:58:45;21.70;99.90
26691;DHT22;14307;51.718;8.938;2022-09-03T17:15:48;21.50;99.90
26691;DHT22;14307;51.718;8.938;2022-09-03T17:21:26;21.40;99.90
26691;DHT22;14307;51.718;8.938;2022-09-03T17:24:22;21.30;99.90
26691;DHT22;14307;51.718;8.938;2022-09-03T17:27:04;21.20;99.90
26691;DHT22;14307;51.718;8.938;2022-09-03T17:29:52;21.20;99.90
26691;DHT22;14307;51.718;8.938;2022-09-03T17:36:03;21.10;99.90
26691;DHT22;14307;51.718;8.938;2022-09-03T17:41:44;21.10;99.90
26691;DHT22;14307;51.718;8.938;2022-09-03T17:44:43;21.10;99.90
26691;DHT22;14307;51.718;8.938;2022-09-03T17:50:25;21.00;99.90
26691;DHT22;14307;51.718;8.938;2022-09-03T17:52:58;21.00;99.90
26691;DHT22;14307;51.718;8.938;2022-09-03T17:58:18;20.90;99.90
26691;DHT22;14307;51.718;8.938;2022-09-03T18:03:48;20.90;99.90
26691;DHT22;14307;51.718;8.938;2022-09-03T18:06:33;20.80;99.90
26691;DHT22;14307;51.718;8.938;2022-09-03T18:14:48;20.50;99.90
26691;DHT22;14307;51.718;8.938;2022-09-03T18:20:13;20.60;99.90
26691;DHT22;14307;51.718;8.938;2022-09-03T18:23:06;20.40;99.90
26691;DHT22;14307;51.718;8.938;2022-09-03T18:25:58;20.40;99.90
26691;DHT22;14307;51.718;8.938;2022-09-03T18:29:00;20.30;99.90
26691;DHT22;14307;51.718;8.938;2022-09-03T18:31:46;20.20;99.90
26691;DHT22;14307;51.718;8.938;2022-09-03T18:34:34;20.20;99.90
26691;DHT22;14307;51.718;8.938;2022-09-03T18:37:25;20.10;99.90
26691;DHT22;14307;51.718;8.938;2022-09-03T18:40:17;20.00;99.90
26691;DHT22;14307;51.718;8.938;2022-09-03T18:43:30;20.00;99.90
26691;DHT22;14307;51.718;8.938;2022-09-03T18:46:31;19.90;99.90
26691;DHT22;14307;51.718;8.938;2022-09-03T18:56:22;19.70;99.90
26691;DHT22;14307;51.718;8.938;2022-09-03T19:02:07;19.60;99.90
26691;DHT22;14307;51.718;8.938;2022-09-03T19:05:17;19.50;99.90
26691;DHT22;14307;51.718;8.938;2022-09-03T19:14:30;19.20;99.90
26691;DHT22;14307;51.718;8.938;2022-09-03T19:17:32;19.20;99.90
26691;DHT22;14307;51.718;8.938;2022-09-03T19:20:27;19.20;99.90
26691;DHT22;14307;51.718;8.938;2022-09-03T19:23:13;19.20;99.90
26691;DHT22;14307;51.718;8.938;2022-09-03T19:29:22;18.90;99.90
26691;DHT22;14307;51.718;8.938;2022-09-03T19:32:18;18.90;99.90
26691;DHT22;14307;51.718;8.938;2022-09-03T19:35:14;18.90;99.90
26691;DHT22;14307;51.718;8.938;2022-09-03T19:44:25;18.80;99.90
26691;DHT22;14307;51.718;8.938;2022-09-03T19:50:33;18.80;99.90
26691;DHT22;14307;51.718;8.938;2022-09-03T19:53:22;18.80;99.90
26691;DHT22;14307;51.718;8.938;2022-09-03T19:56:14;18.80;99.90
26691;DHT22;14307;51.718;8.938;2022-09-03T19:59:10;18.80;99.90
26691;DHT22;14307;51.718;8.938;2022-09-03T20:01:58;18.70;99.90
26691;DHT22;14307;51.718;8.938;2022-09-03T20:04:57;18.60;99.90
26691;DHT22;14307;51.718;8.938;2022-09-03T20:07:44;18.60;99.90
26691;DHT22;14307;51.718;8.938;2022-09-03T20:10:33;18.60;99.90
26691;DHT22;14307;51.718;8.938;2022-09-03T20:16:04;18.50;99.90
26691;DHT22;14307;51.718;8.938;2022-09-03T20:18:46;18.50;99.90
26691;DHT22;14307;51.718;8.938;2022-09-03T20:21:22;18.40;99.90
26691;DHT22;14307;51.718;8.938;2022-09-03T20:23:59;18.40;99.90
26691;DHT22;14307;51.718;8.938;2022-09-03T20:29:40;18.30;99.90
26691;DHT22;14307;51.718;8.938;2022-09-03T20:38:46;17.90;99.90
26691;DHT22;14307;51.718;8.938;2022-09-03T20:55:57;17.40;99.90
26691;DHT22;14307;51.718;8.938;2022-09-03T21:07:51;17.20;99.90
26691;DHT22;14307;51.718;8.938;2022-09-03T21:10:41;17.20;99.90
26691;DHT22;14307;51.718;8.938;2022-09-03T21:13:35;17.00;99.90
26691;DHT22;14307;51.718;8.938;2022-09-03T21:16:23;17.00;99.90
26691;DHT22;14307;51.718;8.938;2022-09-03T21:21:43;16.80;99.90
26691;DHT22;14307;51.718;8.938;2022-09-03T21:24:25;16.70;99.90
26691;DHT22;14307;51.718;8.938;2022-09-03T21:27:11;16.60;99.90
26691;DHT22;14307;51.718;8.938;2022-09-03T21:29:45;16.50;99.90
26691;DHT22;14307;51.718;8.938;2022-09-03T21:32:24;16.50;99.90
26691;DHT22;14307;51.718;8.938;2022-09-03T21:35:15;16.50;99.90
26691;DHT22;14307;51.718;8.938;2022-09-03T21:37:54;16.40;99.90
26691;DHT22;14307;51.718;8.938;2022-09-03T21:40:26;16.30;99.90
26691;DHT22;14307;51.718;8.938;2022-09-03T21:46:05;16.10;99.90
26691;DHT22;14307;51.718;8.938;2022-09-03T21:48:38;16.10;99.90
26691;DHT22;14307;51.718;8.938;2022-09-03T21:51:30;16.20;99.90
26691;DHT22;14307;51.718;8.938;2022-09-03T21:54:31;16.10;99.90
26691;DHT22;14307;51.718;8.938;2022-09-03T21:57:22;16.10;99.90
26691;DHT22;14307;51.718;8.938;2022-09-03T22:02:38;16.30;99.90
26691;DHT22;14307;51.718;8.938;2022-09-03T22:05:05;16.30;99.90
26691;DHT22;14307;51.718;8.938;2022-09-03T22:08:30;16.30;99.90
26691;DHT22;14307;51.718;8.938;2022-09-03T22:10:56;16.30;99.90
26691;DHT22;14307;51.718;8.938;2022-09-03T22:13:33;16.10;99.90
26691;DHT22;14307;51.718;8.938;2022-09-03T22:16:11;16.20;99.90
26691;DHT22;14307;51.718;8.938;2022-09-03T22:18:40;16.20;99.90
26691;DHT22;14307;51.718;8.938;2022-09-03T22:41:06;14.90;99.90
26691;DHT22;14307;51.718;8.938;2022-09-03T22:43:42;14.80;99.90
26691;DHT22;14307;51.718;8.938;2022-09-03T22:46:17;14.70;99.90
26691;DHT22;14307;51.718;8.938;2022-09-03T22:54:32;14.30;99.90